HOURLY OBS INDEX

002

Kimberley - east

ARGYLE AERODROME

Site: 002064
Alt: 164.0m
101km SSW of KUNUNURRA


  Time     Wind        Temp  DP   Baro     Rain since   Rain past  Vis(m), Cloud(base in m), Weather
  local        km/h                         9am  last   hr   10m    
Wed 13:00    W  7/ 15  38.2  6.0  1009.2    0.0   0.0   0.0   0.0   10000 
Wed 13:30   NE 17/ 26  38.1  8.8  1008.8    0.0   0.0   0.0   0.0   10000 
Wed 14:00   NE 15/ 28  36.8  8.6  1008.5    0.0   0.0   0.0   0.0   10000 
Wed 14:30  NNW 13/ 22  38.0  8.7  1008.1    0.0   0.0   0.0   0.0   10000|SC3600 
Wed 15:00   NE 15/ 20  38.4  8.1  1007.9    0.0   0.0   0.0   0.0   10000|BR3600 
Wed 15:30  NNE  9/ 19  37.1  7.1  1008.0    0.0   0.0   0.0   0.0   10000|SC3600 
Wed 16:00    N  9/ 15  36.9  7.8  1008.1    0.0   0.0   0.0   0.0   10000 
Wed 16:30  ENE  9/ 13  35.9  7.9  1008.3    0.0   0.0   0.0   0.0   10000 
Wed 17:00   NE  7/  9  35.0  7.9  1008.6    0.0   0.0   0.0   0.0   10000 
Wed 17:30  NNE 13/ 17  33.8  9.8  1009.0    0.0   0.0   0.0   0.0   10000 
Wed 18:00   NE 13/ 17  32.6 10.6  1009.4    0.0   0.0   0.0   0.0   10000 
Wed 18:30   NE 11/ 17  32.2 10.3  1010.0    0.0   0.0   0.0   0.0   10000 

HALLS CREEK AIRPORT

Site: 002079
Alt: 409.4m
km of


  Time     Wind        Temp  DP   Baro     Rain since   Rain past  Vis(m), Cloud(base in m), Weather
  local        km/h                         9am  last   hr   10m    
Wed 13:00   SE 17/ 33  34.8 -2.7  1011.7    0.0   0.0   0.0   0.0   10000 
Wed 13:30   SE 20/ 24  34.9 -2.6  1011.4    0.0   0.0   0.0   0.0   10000 
Wed 14:00  SSW 17/ 26  35.2 -2.4  1010.9    0.0   0.0   0.0   0.0   10000 
Wed 14:30    S 13/ 17  34.9 -2.6  1010.8    0.0   0.0   0.0   0.0   10000 
Wed 15:00  SSE 13/ 22  34.9 -2.6  1010.6    0.0   0.0   0.0   0.0   10000 
Wed 15:30    S 19/ 26  34.8 -2.7  1010.7    0.0   0.0   0.0   0.0   10000 
Wed 16:00  SSW 15/ 28  34.5 -1.5  1010.7    0.0   0.0   0.0   0.0   10000 
Wed 16:30  SSE 15/ 19  34.1 -1.8  1010.9    0.0   0.0   0.0   0.0   10000 
Wed 17:00  SSE 13/ 22  33.3 -2.4  1011.1    0.0   0.0   0.0   0.0   10000 
Wed 17:30    S 17/ 22  32.3 -1.9  1011.5    0.0   0.0   0.0   0.0   10000 
Wed 18:00    S 17/ 22  31.7 -1.2  1011.8    0.0   0.0   0.0   0.0   10000 
Wed 18:30    S 15/ 22  30.7 -1.9  1012.4    0.0   0.0   0.0   0.0   10000 

HALLS CREEK METEOROLOGICAL OFFICE

Site: 002012
Alt: 422.0m
1km WSW of HALLS CREEK


  Time     Wind        Temp  DP   Baro     Rain since   Rain past  Vis(m), Cloud(base in m), Weather
  local        km/h                         9am  last   hr   10m    
Wed 13:00  ------/---  35.6 -0.7  1012.0    0.0   0.0   0.0   0.0   ----- 
Wed 13:30  ------/---  35.4 -0.8  1011.5    0.0   0.0   0.0   0.0   ----- 
Wed 14:00  ------/---  35.5 -0.8  1011.1    0.0   0.0   0.0   0.0   ----- 
Wed 14:30  ------/---  35.4 -0.8  1011.0    0.0   0.0   0.0   0.0   ----- 
Wed 15:00  ------/---  35.8 -0.5  1010.7    0.0   0.0   0.0   0.0   ----- 
Wed 15:30  ------/---  35.0  0.2  1010.9    0.0   0.0   0.0   0.0   ----- 
Wed 16:00  ------/---  34.5 -0.2  1010.9    0.0   0.0   0.0   0.0   ----- 
Wed 16:30  ------/---  34.0  0.6  1011.1    0.0   0.0   0.0   0.0   ----- 
Wed 17:00  ------/---  33.1 -0.1  1011.3    0.0   0.0   0.0   0.0   ----- 
Wed 17:30  ------/---  32.0  0.2  1011.8    0.0   0.0   0.0   0.0   ----- 
Wed 18:00  ------/---  31.3 -0.4  1012.1    0.0   0.0   0.0   0.0   ----- 
Wed 18:30  ------/---  30.5  0.0  1012.7    0.0   0.0   0.0   0.0   ----- 

KUNUNURRA AERO

Site: 002056
Alt: 44.0m
3km WSW of KUNUNURRA


  Time     Wind        Temp  DP   Baro     Rain since   Rain past  Vis(m), Cloud(base in m), Weather
  local        km/h                         9am  last   hr   10m    
Wed 13:00   NW  6/ 13  37.3  9.8  1008.5    0.0   0.0   0.0   0.0   10000 
Wed 13:30  WSW  6/ 11  37.6  9.2  1008.1    0.0   0.0   0.0   0.0   10000 
Wed 14:00    S  7/ 15  37.5  8.3  1007.7    0.0   0.0   0.0   0.0   10000 
Wed 14:30  SSE  7/ 15  37.7  8.5  1007.3    0.0   0.0   0.0   0.0   10000 
Wed 15:00  SSE 11/ 17  37.4  9.1  1007.0    0.0   0.0   0.0   0.0   10000 
Wed 15:30   SW  7/ 13  37.6  9.2  1007.0    0.0   0.0   0.0   0.0   10000 
Wed 16:00   NW  6/ 11  37.5  9.2  1007.1    0.0   0.0   0.0   0.0   10000 
Wed 16:30  ESE  4/  6  37.5 10.0  1007.3    0.0   0.0   0.0   0.0   10000 
Wed 17:00    N  9/ 15  34.8 10.6  1007.7    0.0   0.0   0.0   0.0   10000 
Wed 17:30    N 17/ 22  32.7 15.2  1008.3    0.0   0.0   0.0   0.0   10000 
Wed 18:00    N 15/ 20  31.5 15.5  1008.9    0.0   0.0   0.0   0.0   10000 
Wed 18:30    N 17/ 20  30.6 15.8  1009.7    0.0   0.0   0.0   0.0   10000 

KUNUNURRA AG STATION

Site: 002GKN
Alt: m
km of


  Time     Wind        Temp  DP   Baro     Rain since   Rain past  Vis(m), Cloud(base in m), Weather
  local        km/h                         9am  last   hr   10m    
Wed 13:00    N  6/ 17  37.4 10.4  ------    0.0   0.0   0.0   0.0   ----- 
Wed 13:30   NE  6/ 15  38.0  9.3  ------    0.0   0.0   0.0   0.0   ----- 
Wed 14:00  ENE  6/ 13  38.3  8.2  ------    0.0   0.0   0.0   0.0   ----- 
Wed 14:30   NE  6/ 15  38.3  7.1  ------    0.0   0.0   0.0   0.0   ----- 
Wed 15:00  NNE  7/ 17  37.8  7.8  ------    0.0   0.0   0.0   0.0   ----- 
Wed 15:30  NNE  2/ 13  38.1  8.3  ------    0.0   0.0   0.0   0.0   ----- 
Wed 16:00    N  4/ 11  37.6  8.4  ------    0.0   0.0   0.0   0.0   ----- 
Wed 16:30   NE  9/ 22  35.9 13.6  ------    0.0   0.0   0.0   0.0   ----- 
Wed 17:00  NNE 13/ 20  33.8 14.3  ------    0.0   0.0   0.0   0.0   ----- 
Wed 17:30  NNE  6/ 11  32.6 13.9  ------    0.0   0.0   0.0   0.0   ----- 
Wed 18:00  NNE  6/ 13  31.8 13.7  ------    0.0   0.0   0.0   0.0   ----- 
Wed 18:30    N  6/ 11  30.8 13.3  ------    0.0   0.0   0.0   0.0   -----